createdAt,value
2022-08-20T00:01:14.600Z,18.05
2022-08-20T00:03:44.728Z,17.98
2022-08-20T00:06:22.425Z,18.17
2022-08-20T00:08:51.173Z,17.92
2022-08-20T00:11:22.901Z,18.17
2022-08-20T00:13:56.614Z,18.77
2022-08-20T00:16:27.073Z,19.33
2022-08-20T00:19:05.354Z,18.55
2022-08-20T00:21:36.519Z,18.63
2022-08-20T00:24:04.679Z,18.92
2022-08-20T00:26:31.928Z,19.58
2022-08-20T00:28:59.131Z,19.92
2022-08-20T00:31:26.672Z,20.88
2022-08-20T00:33:54.092Z,20.30
2022-08-20T00:36:30.128Z,19.73
2022-08-20T00:39:00.088Z,20.83
2022-08-20T00:41:28.070Z,20.88
2022-08-20T00:44:17.983Z,20.95
2022-08-20T00:46:45.929Z,20.90
2022-08-20T00:49:19.993Z,20.40
2022-08-20T00:51:54.722Z,20.05
2022-08-20T00:54:31.459Z,21.38
2022-08-20T00:57:13.520Z,21.63
2022-08-20T00:59:43.040Z,20.80
2022-08-20T01:02:15.437Z,21.35
2022-08-20T01:04:47.311Z,20.60
2022-08-20T01:07:14.535Z,20.25
2022-08-20T01:09:58.049Z,19.80
2022-08-20T01:12:29.354Z,19.73
2022-08-20T01:14:59.059Z,19.77
2022-08-20T01:17:29.777Z,19.13
2022-08-20T01:20:06.496Z,19.67
2022-08-20T01:23:04.850Z,18.10
2022-08-20T01:25:53.411Z,18.90
2022-08-20T01:28:25.599Z,17.52
2022-08-20T01:30:53.352Z,18.00
2022-08-20T01:33:22.754Z,16.92
2022-08-20T01:35:51.755Z,15.60
2022-08-20T01:38:19.431Z,17.10
2022-08-20T01:41:28.512Z,15.10
2022-08-20T01:43:57.229Z,14.60
2022-08-20T01:46:33.244Z,14.10
2022-08-20T01:49:21.022Z,13.48
2022-08-20T01:51:52.615Z,13.48
2022-08-20T01:54:20.795Z,12.70
2022-08-20T01:57:00.628Z,11.80
2022-08-20T01:59:28.507Z,12.07
2022-08-20T02:01:56.678Z,11.65
2022-08-20T02:04:24.640Z,11.32
2022-08-20T02:06:57.509Z,10.43
2022-08-20T02:09:27.296Z,11.05
2022-08-20T02:11:55.040Z,9.82
2022-08-20T02:14:22.757Z,10.45
2022-08-20T02:16:55.090Z,9.98
2022-08-20T02:19:45.846Z,9.98
2022-08-20T02:22:40.852Z,9.25
2022-08-20T02:25:18.313Z,8.70
2022-08-20T02:27:46.930Z,8.93
2022-08-20T02:30:27.505Z,9.00
2022-08-20T02:32:56.413Z,8.80
2022-08-20T02:35:24.391Z,8.73
2022-08-20T02:37:52.236Z,8.00
2022-08-20T02:40:30.352Z,8.40
2022-08-20T02:42:59.996Z,8.82
2022-08-20T02:45:29.363Z,9.48
2022-08-20T02:47:57.652Z,9.60
2022-08-20T02:50:26.512Z,9.65
2022-08-20T02:52:54.287Z,13.57
2022-08-20T02:55:27.837Z,13.13
2022-08-20T02:57:58.928Z,17.75
2022-08-20T03:00:27.396Z,18.63
2022-08-20T03:02:54.561Z,21.10
2022-08-20T03:05:21.707Z,25.92
2022-08-20T03:07:53.885Z,25.52
2022-08-20T03:10:31.297Z,28.60
2022-08-20T03:13:01.251Z,28.88
2022-08-20T03:15:29.265Z,30.70
2022-08-20T03:17:56.967Z,32.03
2022-08-20T03:20:25.345Z,30.90
2022-08-20T03:22:53.275Z,29.90
2022-08-20T03:25:20.595Z,29.63
2022-08-20T03:27:54.678Z,29.40
2022-08-20T03:30:25.700Z,26.98
2022-08-20T03:32:53.040Z,26.17
2022-08-20T03:35:23.128Z,25.98
2022-08-20T03:37:50.760Z,26.88
2022-08-20T03:40:25.678Z,25.85
2022-08-20T03:42:53.161Z,23.50
2022-08-20T03:45:21.492Z,22.50
2022-08-20T03:47:49.303Z,21.70
2022-08-20T03:50:22.897Z,21.02
2022-08-20T03:52:51.888Z,18.35
2022-08-20T03:55:20.642Z,19.33
2022-08-20T03:57:54.458Z,18.70
2022-08-20T04:00:50.005Z,20.23
2022-08-20T04:03:17.928Z,21.02
2022-08-20T04:05:46.078Z,21.48
2022-08-20T04:08:23.406Z,20.48
2022-08-20T04:10:51.380Z,20.92
2022-08-20T04:13:21.256Z,21.25
2022-08-20T04:15:53.851Z,19.57
2022-08-20T04:18:24.212Z,19.42
2022-08-20T04:20:52.618Z,18.98
2022-08-20T04:23:21.396Z,18.65
2022-08-20T04:25:49.149Z,18.75
2022-08-20T04:28:28.861Z,17.80
2022-08-20T04:30:59.213Z,16.17
2022-08-20T04:33:33.809Z,16.23
2022-08-20T04:36:03.313Z,15.40
2022-08-20T04:38:49.732Z,15.90
2022-08-20T04:41:22.979Z,15.23
2022-08-20T04:46:19.532Z,15.20
2022-08-20T04:48:50.210Z,13.57
2022-08-20T04:51:18.873Z,13.77
2022-08-20T04:53:51.663Z,13.40
2022-08-20T04:56:24.155Z,14.05
2022-08-20T04:58:53.293Z,13.77
2022-08-20T05:01:20.898Z,14.10
2022-08-20T05:03:49.141Z,14.93
2022-08-20T05:06:18.157Z,13.77
2022-08-20T05:08:46.082Z,14.15
2022-08-20T05:11:32.620Z,13.25
2022-08-20T05:14:02.296Z,13.40
2022-08-20T05:16:29.890Z,13.35
2022-08-20T05:18:58.219Z,14.25
2022-08-20T05:21:25.606Z,14.43
2022-08-20T05:23:52.745Z,14.50
2022-08-20T05:26:20.082Z,14.07
2022-08-20T05:28:57.197Z,15.05
2022-08-20T05:31:32.488Z,13.13
2022-08-20T05:34:11.113Z,13.77
2022-08-20T05:36:47.007Z,13.35
2022-08-20T05:39:17.015Z,12.43
2022-08-20T05:41:44.202Z,13.23
2022-08-20T05:44:13.773Z,13.13
2022-08-20T05:46:43.623Z,12.90
2022-08-20T05:49:16.336Z,12.00
2022-08-20T05:51:44.246Z,12.25
2022-08-20T05:54:11.543Z,12.38
2022-08-20T05:56:39.672Z,11.38
2022-08-20T05:59:08.554Z,10.90
2022-08-20T06:01:38.688Z,10.80
2022-08-20T06:04:24.881Z,9.90
2022-08-20T06:06:57.717Z,10.20
2022-08-20T06:09:31.031Z,9.70
2022-08-20T06:12:04.826Z,9.20
2022-08-20T06:14:33.193Z,8.98
2022-08-20T06:17:13.737Z,8.70
2022-08-20T06:19:44.715Z,7.57
2022-08-20T06:22:21.073Z,7.90
2022-08-20T06:24:52.976Z,7.40
2022-08-20T06:27:21.276Z,7.03
2022-08-20T06:29:49.186Z,8.00
2022-08-20T06:32:16.831Z,7.35
2022-08-20T06:34:50.408Z,6.25
2022-08-20T06:37:30.927Z,6.60
2022-08-20T06:40:03.422Z,7.28
2022-08-20T06:42:30.839Z,6.70
2022-08-20T06:44:59.821Z,6.32
2022-08-20T06:47:26.987Z,6.47
2022-08-20T06:49:54.135Z,6.47
2022-08-20T06:52:29.954Z,6.22
2022-08-20T06:55:10.934Z,7.10
2022-08-20T06:57:38.918Z,6.30
2022-08-20T07:00:10.328Z,6.32
2022-08-20T07:02:45.174Z,9.35
2022-08-20T07:05:14.115Z,8.90
2022-08-20T07:07:45.610Z,14.50
2022-08-20T07:10:15.141Z,10.80
2022-08-20T07:12:42.892Z,9.85
2022-08-20T07:15:12.062Z,8.18
2022-08-20T07:17:40.219Z,10.30
2022-08-20T07:20:14.156Z,9.07
2022-08-20T07:22:42.450Z,8.82
2022-08-20T07:25:12.742Z,6.60
2022-08-20T07:27:40.250Z,6.90
2022-08-20T07:30:56.851Z,6.88
2022-08-20T07:33:22.892Z,7.47
2022-08-20T07:35:50.592Z,6.60
2022-08-20T07:38:24.516Z,6.30
2022-08-20T07:41:03.650Z,5.72
2022-08-20T07:43:31.399Z,5.60
2022-08-20T07:46:02.194Z,5.75
2022-08-20T07:48:32.210Z,5.65
2022-08-20T07:51:05.022Z,5.90
2022-08-20T07:53:35.797Z,4.97
2022-08-20T07:56:11.625Z,5.45
2022-08-20T07:58:47.747Z,4.93
2022-08-20T08:01:14.947Z,5.10
2022-08-20T08:03:49.767Z,5.60
2022-08-20T08:06:29.394Z,5.35
2022-08-20T08:09:16.187Z,5.43
2022-08-20T08:11:52.669Z,5.20
2022-08-20T08:14:24.984Z,5.60
2022-08-20T08:16:54.921Z,5.60
2022-08-20T08:19:22.490Z,5.97
2022-08-20T08:21:49.810Z,6.07
2022-08-20T08:27:02.334Z,5.38
2022-08-20T08:29:29.665Z,5.65
2022-08-20T08:31:57.289Z,5.88
2022-08-20T08:34:28.396Z,5.75
2022-08-20T08:36:55.782Z,5.60
2022-08-20T08:39:23.369Z,6.10
2022-08-20T08:41:52.578Z,5.80
2022-08-20T08:44:25.072Z,6.40
2022-08-20T08:46:56.881Z,5.88
2022-08-20T08:49:33.963Z,6.75
2022-08-20T08:52:14.778Z,6.90
2022-08-20T08:54:49.764Z,6.18
2022-08-20T08:57:17.341Z,6.50
2022-08-20T09:00:03.883Z,7.55
2022-08-20T09:02:34.373Z,8.15
2022-08-20T09:05:18.053Z,8.52
2022-08-20T09:07:50.067Z,8.80
2022-08-20T09:10:20.028Z,8.55
2022-08-20T09:12:52.130Z,8.40
2022-08-20T09:15:21.265Z,9.23
2022-08-20T09:17:48.538Z,9.32
2022-08-20T09:20:16.037Z,9.80
2022-08-20T09:22:43.194Z,10.13
2022-08-20T09:25:10.747Z,9.27
2022-08-20T09:27:39.102Z,9.93
2022-08-20T09:30:09.651Z,10.60
2022-08-20T09:32:36.915Z,11.00
2022-08-20T09:35:07.755Z,10.70
2022-08-20T09:37:37.817Z,11.98
2022-08-20T09:40:07.221Z,11.25
2022-08-20T09:42:41.967Z,11.75
2022-08-20T09:45:11.500Z,13.50
2022-08-20T09:47:48.721Z,13.90
2022-08-20T09:50:24.336Z,13.63
2022-08-20T09:52:53.721Z,13.13
2022-08-20T09:55:45.245Z,13.27
2022-08-20T09:58:31.073Z,12.57
2022-08-20T10:01:00.298Z,12.88
2022-08-20T10:03:27.360Z,12.68
2022-08-20T10:05:54.563Z,12.80
2022-08-20T10:08:21.784Z,13.10
2022-08-20T10:10:49.053Z,13.75
2022-08-20T10:13:16.189Z,13.00
2022-08-20T10:15:43.822Z,13.70
2022-08-20T10:18:12.228Z,13.38
2022-08-20T10:20:39.971Z,13.38
2022-08-20T10:23:07.468Z,12.93
2022-08-20T10:25:35.032Z,12.43
2022-08-20T10:28:02.256Z,11.38
2022-08-20T10:30:29.534Z,11.00
2022-08-20T10:32:56.934Z,11.23
2022-08-20T10:35:24.255Z,10.65
2022-08-20T10:37:52.120Z,11.55
2022-08-20T10:40:19.552Z,10.95
2022-08-20T10:42:46.772Z,10.02
2022-08-20T10:45:16.418Z,10.35
2022-08-20T10:47:44.905Z,10.32
2022-08-20T10:50:16.230Z,10.27
2022-08-20T10:52:54.980Z,9.57
2022-08-20T10:55:22.207Z,9.40
2022-08-20T10:57:49.724Z,9.43
2022-08-20T11:00:19.148Z,8.77
2022-08-20T11:02:46.546Z,8.95
2022-08-20T11:05:13.980Z,9.23
2022-08-20T11:07:54.908Z,7.68
2022-08-20T11:10:27.234Z,7.95
2022-08-20T11:12:54.894Z,7.75
2022-08-20T11:15:22.126Z,7.05
2022-08-20T11:17:49.843Z,7.13
2022-08-20T11:20:19.573Z,7.07
2022-08-20T11:22:47.632Z,8.27
2022-08-20T11:25:15.230Z,6.60
2022-08-20T11:27:46.524Z,6.53
2022-08-20T11:30:18.428Z,6.57
2022-08-20T11:32:45.866Z,5.50
2022-08-20T11:35:40.925Z,5.45
2022-08-20T11:38:02.154Z,5.25
2022-08-20T11:40:31.513Z,5.45
2022-08-20T11:43:14.145Z,5.65
2022-08-20T11:45:43.388Z,5.20
2022-08-20T11:48:10.627Z,5.57
2022-08-20T11:50:37.767Z,5.53
2022-08-20T11:53:04.892Z,4.72
2022-08-20T11:55:32.646Z,4.90
2022-08-20T11:58:00.995Z,4.90
2022-08-20T12:00:33.205Z,4.75
2022-08-20T12:03:08.976Z,4.20
2022-08-20T12:05:38.609Z,4.40
2022-08-20T12:08:06.261Z,4.35
2022-08-20T12:10:33.911Z,4.43
2022-08-20T12:13:02.670Z,4.57
2022-08-20T12:15:33.504Z,4.70
2022-08-20T12:18:01.425Z,4.47
2022-08-20T12:20:28.769Z,4.15
2022-08-20T12:22:56.124Z,5.40
2022-08-20T12:25:23.391Z,4.47
2022-08-20T12:27:50.692Z,4.68
2022-08-20T12:30:20.648Z,4.63
2022-08-20T12:32:48.563Z,4.47
2022-08-20T12:35:17.656Z,4.30
2022-08-20T12:37:47.125Z,3.88
2022-08-20T12:40:32.475Z,4.07
2022-08-20T12:43:04.809Z,3.95
2022-08-20T12:45:33.555Z,4.20
2022-08-20T12:48:11.657Z,4.57
2022-08-20T12:50:40.781Z,3.88
2022-08-20T12:53:08.459Z,4.55
2022-08-20T12:55:36.437Z,4.00
2022-08-20T12:58:07.783Z,3.85
2022-08-20T13:00:47.281Z,4.35
2022-08-20T13:03:19.615Z,3.85
2022-08-20T13:05:47.747Z,4.00
2022-08-20T13:08:14.965Z,4.30
2022-08-20T13:10:46.955Z,4.05
2022-08-20T13:13:15.288Z,4.80
2022-08-20T13:15:45.034Z,4.47
2022-08-20T13:18:12.216Z,4.20
2022-08-20T13:20:41.288Z,4.57
2022-08-20T13:23:08.376Z,5.00
2022-08-20T13:25:35.561Z,4.65
2022-08-20T13:28:04.706Z,5.28
2022-08-20T13:30:34.171Z,5.78
2022-08-20T13:33:01.540Z,5.88
2022-08-20T13:35:28.981Z,6.75
2022-08-20T13:37:56.192Z,6.47
2022-08-20T13:40:23.514Z,6.95
2022-08-20T13:42:50.799Z,7.07
2022-08-20T13:45:18.460Z,6.88
2022-08-20T13:47:45.731Z,7.28
2022-08-20T13:50:16.862Z,7.45
2022-08-20T13:52:44.875Z,6.95
2022-08-20T13:55:16.166Z,7.68
2022-08-20T13:57:44.424Z,7.40
2022-08-20T14:00:19.613Z,7.18
2022-08-20T14:02:47.051Z,6.93
2022-08-20T14:05:18.537Z,7.20
2022-08-20T14:07:47.644Z,8.20
2022-08-20T14:10:19.525Z,7.68
2022-08-20T14:12:46.801Z,6.95
2022-08-20T14:15:14.260Z,7.47
2022-08-20T14:17:49.349Z,6.88
2022-08-20T14:20:19.908Z,6.40
2022-08-20T14:22:47.175Z,6.70
2022-08-20T14:25:17.123Z,6.13
2022-08-20T14:27:44.782Z,5.47
2022-08-20T14:30:15.515Z,6.38
2022-08-20T14:32:42.710Z,6.28
2022-08-20T14:35:11.374Z,5.68
2022-08-20T14:37:41.792Z,5.57
2022-08-20T14:40:15.218Z,4.47
2022-08-20T14:42:43.339Z,5.43
2022-08-20T14:45:15.720Z,4.90
2022-08-20T14:47:53.376Z,4.65
2022-08-20T14:50:25.965Z,5.10
2022-08-20T14:52:58.801Z,4.00
2022-08-20T14:55:29.424Z,4.20
2022-08-20T14:57:57.053Z,3.75
2022-08-20T15:00:28.673Z,3.60
2022-08-20T15:02:57.326Z,3.45
2022-08-20T15:05:25.253Z,3.20
2022-08-20T15:07:54.104Z,3.50
2022-08-20T15:10:33.805Z,3.08
2022-08-20T15:13:01.581Z,3.45
2022-08-20T15:15:28.765Z,2.95
2022-08-20T15:17:58.111Z,3.05
2022-08-20T15:20:31.219Z,3.15
2022-08-20T15:25:36.471Z,2.80
2022-08-20T15:28:07.683Z,2.72
2022-08-20T15:30:36.129Z,3.30
2022-08-20T15:33:03.563Z,2.50
2022-08-20T15:35:31.002Z,2.70
2022-08-20T15:37:59.594Z,3.03
2022-08-20T15:40:29.212Z,2.58
2022-08-20T15:43:01.798Z,2.60
2022-08-20T15:45:29.228Z,2.92
2022-08-20T15:48:10.589Z,3.25
2022-08-20T15:50:37.889Z,3.30
2022-08-20T15:53:12.244Z,3.15
2022-08-20T15:55:57.910Z,2.58
2022-08-20T15:58:39.765Z,2.38
2022-08-20T16:01:35.667Z,2.50
2022-08-20T16:04:24.581Z,2.95
2022-08-20T16:06:55.060Z,2.55
2022-08-20T16:09:43.429Z,3.33
2022-08-20T16:12:17.754Z,2.53
2022-08-20T16:14:51.303Z,2.63
2022-08-20T16:17:29.676Z,2.60
2022-08-20T16:20:00.264Z,2.90
2022-08-20T16:22:31.945Z,2.78
2022-08-20T16:24:59.864Z,2.95
2022-08-20T16:27:55.290Z,3.20
2022-08-20T16:30:42.856Z,2.38
2022-08-20T16:33:19.083Z,2.80
2022-08-20T16:35:59.168Z,2.63
2022-08-20T16:38:35.417Z,2.78
2022-08-20T16:41:19.074Z,2.65
2022-08-20T16:43:52.753Z,3.03
2022-08-20T16:46:31.675Z,2.35
2022-08-20T16:49:11.431Z,2.63
2022-08-20T16:51:47.088Z,2.75
2022-08-20T16:54:18.142Z,2.80
2022-08-20T16:57:06.019Z,2.53
2022-08-20T16:59:33.875Z,2.75
2022-08-20T17:02:10.317Z,2.80
2022-08-20T17:04:58.488Z,2.92
2022-08-20T17:07:59.315Z,2.88
2022-08-20T17:10:36.011Z,3.40
2022-08-20T17:13:20.062Z,2.83
2022-08-20T17:16:02.600Z,3.25
2022-08-20T17:18:37.090Z,3.03
2022-08-20T17:21:26.521Z,3.08
2022-08-20T17:24:31.376Z,3.40
2022-08-20T17:27:00.760Z,2.90
2022-08-20T17:29:31.081Z,3.25
2022-08-20T17:32:18.636Z,3.15
2022-08-20T17:34:48.997Z,3.35
2022-08-20T17:37:40.779Z,2.92
2022-08-20T17:40:20.597Z,3.65
2022-08-20T17:42:58.444Z,3.90
2022-08-20T17:45:31.406Z,3.33
2022-08-20T17:48:00.169Z,3.40
2022-08-20T17:50:35.743Z,3.20
2022-08-20T17:53:23.388Z,3.80
2022-08-20T17:56:03.964Z,3.45
2022-08-20T17:58:55.038Z,3.80
2022-08-20T18:01:24.205Z,4.20
2022-08-20T18:03:54.253Z,3.97
2022-08-20T18:06:46.394Z,3.75
2022-08-20T18:09:31.394Z,3.58
2022-08-20T18:12:18.440Z,3.88
2022-08-20T18:15:24.151Z,3.83
2022-08-20T18:18:31.513Z,4.35
2022-08-20T18:21:39.250Z,4.00
2022-08-20T18:24:16.661Z,3.88
2022-08-20T18:26:58.580Z,4.43
2022-08-20T18:29:37.104Z,5.20
2022-08-20T18:32:10.332Z,4.68
2022-08-20T18:34:41.690Z,4.95
2022-08-20T18:37:18.046Z,4.63
2022-08-20T18:39:47.166Z,4.55
2022-08-20T18:42:26.408Z,4.35
2022-08-20T18:44:55.770Z,4.15
2022-08-20T18:47:33.937Z,4.47
2022-08-20T18:50:16.073Z,4.70
2022-08-20T18:52:50.778Z,4.75
2022-08-20T18:55:38.307Z,4.45
2022-08-20T18:58:09.051Z,4.50
2022-08-20T19:00:44.079Z,4.70
2022-08-20T19:03:26.330Z,4.25
2022-08-20T19:06:09.047Z,3.95
2022-08-20T19:08:45.499Z,4.47
2022-08-20T19:11:44.415Z,4.40
2022-08-20T19:15:07.118Z,4.53
2022-08-20T19:17:43.183Z,5.00
2022-08-20T19:20:37.986Z,5.28
2022-08-20T19:23:13.482Z,4.70
2022-08-20T19:26:25.313Z,4.43
2022-08-20T19:29:09.378Z,4.00
2022-08-20T19:31:37.555Z,4.57
2022-08-20T19:34:20.379Z,4.07
2022-08-20T19:37:08.904Z,4.55
2022-08-20T19:39:51.019Z,4.47
2022-08-20T19:42:23.196Z,4.32
2022-08-20T19:44:59.829Z,4.50
2022-08-20T19:47:32.642Z,4.07
2022-08-20T19:50:24.101Z,3.67
2022-08-20T19:53:00.325Z,4.05
2022-08-20T19:55:34.182Z,4.07
2022-08-20T19:58:05.143Z,3.97
2022-08-20T20:00:45.089Z,3.88
2022-08-20T20:03:35.071Z,4.03
2022-08-20T20:06:17.485Z,3.83
2022-08-20T20:08:50.538Z,4.00
2022-08-20T20:11:20.541Z,4.32
2022-08-20T20:13:47.849Z,3.92
2022-08-20T20:16:20.934Z,3.92
2022-08-20T20:19:03.760Z,3.67
2022-08-20T20:21:44.073Z,4.40
2022-08-20T20:24:20.216Z,4.60
2022-08-20T20:26:49.413Z,4.18
2022-08-20T20:29:29.315Z,4.53
2022-08-20T20:31:59.464Z,4.65
2022-08-20T20:34:54.914Z,4.78
2022-08-20T20:37:49.050Z,4.97
2022-08-20T20:40:36.051Z,5.00
2022-08-20T20:43:10.268Z,5.50
2022-08-20T20:45:41.902Z,5.95
2022-08-20T20:48:21.887Z,5.93
2022-08-20T20:50:51.223Z,6.07
2022-08-20T20:53:53.235Z,7.10
2022-08-20T20:56:33.754Z,7.70
2022-08-20T20:59:06.091Z,7.93
2022-08-20T21:04:22.161Z,8.80
2022-08-20T21:06:50.523Z,10.55
2022-08-20T21:09:19.066Z,11.32
2022-08-20T21:11:46.531Z,11.75
2022-08-20T21:14:14.100Z,12.10
2022-08-20T21:16:41.786Z,12.98
2022-08-20T21:19:10.161Z,13.23
2022-08-20T21:21:39.441Z,13.07
2022-08-20T21:24:07.728Z,14.02
2022-08-20T21:26:35.405Z,14.40
2022-08-20T21:29:03.047Z,15.75
2022-08-20T21:31:34.997Z,15.63
2022-08-20T21:34:02.408Z,15.77
2022-08-20T21:36:29.768Z,17.33
2022-08-20T21:38:57.240Z,17.08
2022-08-20T21:41:29.466Z,16.67
2022-08-20T21:46:26.067Z,18.10
2022-08-20T21:48:53.378Z,18.45
2022-08-20T21:51:20.577Z,19.27
2022-08-20T21:53:47.823Z,19.15
2022-08-20T21:56:15.023Z,19.80
2022-08-20T21:58:42.936Z,19.17
2022-08-20T22:01:12.137Z,21.35
2022-08-20T22:03:40.977Z,21.48
2022-08-20T22:06:11.761Z,22.40
2022-08-20T22:08:39.288Z,22.55
2022-08-20T22:11:08.683Z,21.08
2022-08-20T22:13:36.309Z,21.42
2022-08-20T22:16:08.401Z,21.27
2022-08-20T22:18:36.152Z,22.05
2022-08-20T22:21:06.576Z,22.23
2022-08-20T22:23:35.049Z,22.73
2022-08-20T22:26:02.277Z,21.23
2022-08-20T22:28:29.581Z,23.92
2022-08-20T22:30:57.213Z,22.00
2022-08-20T22:33:24.588Z,23.33
2022-08-20T22:35:54.792Z,23.23
2022-08-20T22:38:22.676Z,23.23
2022-08-20T22:40:50.520Z,22.75
2022-08-20T22:43:18.055Z,24.23
2022-08-20T22:45:47.382Z,23.77
2022-08-20T22:48:17.585Z,24.70
2022-08-20T22:50:45.536Z,25.60
2022-08-20T22:53:14.371Z,26.75
2022-08-20T22:55:41.618Z,27.80
2022-08-20T22:58:09.068Z,27.65
2022-08-20T23:00:37.686Z,28.17
2022-08-20T23:03:05.418Z,29.52
2022-08-20T23:05:36.127Z,31.05
2022-08-20T23:08:08.387Z,31.33
2022-08-20T23:10:37.544Z,30.00
2022-08-20T23:13:10.697Z,31.75
2022-08-20T23:18:18.680Z,35.10
2022-08-20T23:20:51.586Z,33.95
2022-08-20T23:23:19.040Z,35.50
2022-08-20T23:25:48.886Z,36.17
2022-08-20T23:28:19.593Z,36.50
2022-08-20T23:30:47.755Z,37.38
2022-08-20T23:33:15.929Z,37.10
2022-08-20T23:35:44.984Z,37.97
2022-08-20T23:38:12.997Z,38.53
2022-08-20T23:40:40.466Z,37.90
2022-08-20T23:43:08.001Z,40.03
2022-08-20T23:45:35.461Z,38.95
2022-08-20T23:48:07.964Z,39.22
2022-08-20T23:50:35.746Z,40.08
2022-08-20T23:53:04.725Z,41.20
2022-08-20T23:55:32.724Z,39.83
2022-08-20T23:58:00.165Z,40.22
